Time;durP1;ratioP1;P1;durP2;ratioP2;P2;SDS_P1;SDS_P2;PMS_P1;PMS_P2;Temp;Humidity;BMP_temperature;BMP_pressure;BME280_temperature;BME280_humidity;BME280_pressure;Samples;Min_cycle;Max_cycle;Signal;HPM_P1;HPM_P2
2023/03/01 16:31:23;;;;;;;28.35;23.63;;;6.90;99.90;;;;;;6224685;22;1220985;-79
2023/03/01 16:33:51;;;;;;;25.45;22.67;;;6.90;99.90;;;;;;6246315;22;20062;-79
2023/03/01 16:36:18;;;;;;;26.95;22.65;;;6.80;99.90;;;;;;6219851;22;20011;-79
2023/03/01 16:38:44;;;;;;;27.38;22.45;;;6.70;99.90;;;;;;6272473;22;20115;-78
2023/03/01 16:41:13;;;;;;;24.23;21.15;;;6.90;99.90;;;;;;6245338;22;20073;-78
2023/03/01 16:43:39;;;;;;;24.98;21.00;;;6.50;99.90;;;;;;6272443;22;20067;-78
2023/03/01 16:46:18;;;;;;;26.40;22.75;;;6.40;99.90;;;;;;6245393;22;20012;-78
2023/03/01 16:48:45;;;;;;;25.42;22.55;;;6.30;99.90;;;;;;6245773;22;20380;-79
2023/03/01 16:51:10;;;;;;;25.00;21.23;;;6.30;99.90;;;;;;6220181;22;20554;-79
2023/03/01 16:53:37;;;;;;;25.15;22.25;;;6.10;99.90;;;;;;6272007;22;20047;-79
2023/03/01 16:56:08;;;;;;;27.73;23.05;;;6.00;99.90;;;;;;6219648;22;20016;-79
2023/03/01 16:58:35;;;;;;;25.63;21.48;;;5.90;99.90;;;;;;6245236;22;20458;-78
2023/03/01 17:01:05;;;;;;;28.48;21.33;;;5.80;99.90;;;;;;6272999;22;20074;-79
2023/03/01 17:03:31;;;;;;;23.50;20.45;;;5.70;99.90;;;;;;6245471;22;20008;-77
2023/03/01 17:05:56;;;;;;;25.45;21.35;;;5.70;99.90;;;;;;6244758;22;20093;-78
2023/03/01 17:08:22;;;;;;;24.42;21.10;;;5.60;99.90;;;;;;6270400;22;20439;-79
2023/03/01 17:10:48;;;;;;;24.63;21.35;;;5.50;99.90;;;;;;6218699;22;20663;-78
2023/03/01 17:13:14;;;;;;;26.40;21.25;;;5.50;99.90;;;;;;6245221;22;20039;-79
2023/03/01 17:15:40;;;;;;;25.50;21.83;;;5.40;99.90;;;;;;6244171;22;20297;-78
2023/03/01 17:18:07;;;;;;;25.15;22.30;;;5.30;99.90;;;;;;6245354;22;20434;-78
2023/03/01 17:20:33;;;;;;;24.60;21.05;;;5.20;99.90;;;;;;6271812;22;20012;-79
2023/03/01 17:22:59;;;;;;;23.73;21.23;;;5.20;99.90;;;;;;6218724;22;20003;-78
2023/03/01 17:25:24;;;;;;;28.02;21.85;;;5.10;99.90;;;;;;6271706;22;20015;-78
2023/03/01 17:27:50;;;;;;;25.90;22.40;;;5.00;99.90;;;;;;6219624;22;20016;-78
2023/03/01 17:30:16;;;;;;;25.70;22.50;;;4.90;99.90;;;;;;6244477;22;20081;-78
2023/03/01 17:32:41;;;;;;;27.35;23.30;;;4.80;99.90;;;;;;6244988;22;20050;-78
2023/03/01 17:35:07;;;;;;;27.60;23.08;;;4.70;99.90;;;;;;6219173;22;20114;-78
2023/03/01 17:37:33;;;;;;;27.08;23.80;;;4.70;99.90;;;;;;6243970;22;20383;-79
2023/03/01 17:39:59;;;;;;;33.55;27.58;;;4.70;99.90;;;;;;6219270;22;20018;-78
2023/03/01 17:42:24;;;;;;;30.50;26.73;;;4.60;99.90;;;;;;6272162;22;20016;-78
2023/03/01 17:44:50;;;;;;;31.17;24.95;;;4.60;99.90;;;;;;6244077;22;20023;-78
2023/03/01 17:47:16;;;;;;;28.42;24.23;;;4.50;99.90;;;;;;6219112;22;20011;-78
2023/03/01 17:49:41;;;;;;;30.17;24.88;;;4.40;99.90;;;;;;6272250;22;20079;-77
2023/03/01 17:52:07;;;;;;;32.45;25.63;;;4.40;99.90;;;;;;6243082;22;20018;-76
2023/03/01 17:54:33;;;;;;;29.98;25.98;;;4.30;99.90;;;;;;6244250;22;20086;-77
2023/03/01 17:56:59;;;;;;;32.97;27.23;;;4.40;99.90;;;;;;6244629;22;20015;-76
2023/03/01 17:59:30;;;;;;;33.20;27.92;;;4.40;99.90;;;;;;6245024;22;20004;-77
2023/03/01 18:02:00;;;;;;;31.45;27.60;;;4.40;99.90;;;;;;6244629;22;20012;-78
2023/03/01 18:04:26;;;;;;;32.38;27.02;;;4.40;99.90;;;;;;6244912;22;20015;-77
2023/03/01 18:06:52;;;;;;;33.08;29.10;;;4.40;99.90;;;;;;6243907;22;20008;-77
2023/03/01 18:09:18;;;;;;;31.42;28.00;;;4.40;99.90;;;;;;6272131;22;20330;-76
2023/03/01 18:11:44;;;;;;;36.15;29.48;;;4.30;99.90;;;;;;6245185;22;20015;-78
2023/03/01 18:14:09;;;;;;;31.98;28.27;;;4.30;99.90;;;;;;6272697;22;20431;-78
2023/03/01 18:16:35;;;;;;;33.92;28.17;;;4.30;99.90;;;;;;6244074;22;20106;-78
2023/03/01 18:19:01;;;;;;;32.47;27.48;;;4.20;99.90;;;;;;6244670;22;20019;-78
2023/03/01 18:21:28;;;;;;;36.45;30.38;;;4.20;99.90;;;;;;6244157;22;20035;-79
2023/03/01 18:23:54;;;;;;;34.38;28.58;;;4.20;99.90;;;;;;6245286;22;20032;-80
2023/03/01 18:26:21;;;;;;;33.92;29.20;;;4.20;99.90;;;;;;6244553;22;20083;-80
2023/03/01 18:28:50;;;;;;;33.10;29.60;;;4.20;99.90;;;;;;6245167;22;20012;-79
2023/03/01 18:31:17;;;;;;;33.40;29.80;;;4.10;99.90;;;;;;6244164;22;20012;-79
2023/03/01 18:33:44;;;;;;;31.60;28.17;;;4.10;99.90;;;;;;6243978;22;20065;-79
2023/03/01 18:36:24;;;;;;;34.67;29.77;;;4.50;99.90;;;;;;6244159;22;20039;-80
2023/03/01 18:38:51;;;;;;;33.65;30.00;;;4.00;99.90;;;;;;6219273;22;20043;-80
2023/03/01 18:41:17;;;;;;;35.67;30.88;;;4.00;99.90;;;;;;6244227;22;20038;-80
2023/03/01 18:43:43;;;;;;;38.53;31.70;;;3.90;99.90;;;;;;6268918;22;20668;-80
2023/03/01 18:46:08;;;;;;;35.20;30.60;;;3.80;99.90;;;;;;6244049;22;20015;-80
2023/03/01 18:48:35;;;;;;;36.25;30.10;;;3.80;99.90;;;;;;6243311;22;20199;-80
2023/03/01 18:51:13;;;;;;;37.05;32.28;;;3.70;99.90;;;;;;6272111;22;20015;-80
2023/03/01 18:53:39;;;;;;;37.60;32.38;;;3.60;99.90;;;;;;6243469;22;20461;-80
2023/03/01 18:56:06;;;;;;;35.38;31.58;;;3.60;99.90;;;;;;6271276;22;20111;-80
2023/03/01 18:58:32;;;;;;;38.47;33.47;;;3.50;99.90;;;;;;6244019;22;20023;-80
2023/03/01 19:01:00;;;;;;;36.88;32.85;;;3.60;99.90;;;;;;6271754;22;20008;-80
2023/03/01 19:03:27;;;;;;;39.20;33.60;;;3.40;99.90;;;;;;6242699;22;20088;-79
2023/03/01 19:05:53;;;;;;;37.72;33.58;;;3.30;99.90;;;;;;6243855;22;20395;-80
2023/03/01 19:08:19;;;;;;;39.00;33.92;;;3.30;99.90;;;;;;6218918;22;20016;-80
2023/03/01 19:10:44;;;;;;;40.05;33.83;;;3.20;99.90;;;;;;6272356;22;20333;-80
2023/03/01 19:13:10;;;;;;;39.30;34.58;;;3.20;99.90;;;;;;6244070;22;20069;-80
2023/03/01 19:15:36;;;;;;;39.08;33.55;;;3.10;99.90;;;;;;6219444;22;20023;-80
2023/03/01 19:18:04;;;;;;;46.70;37.22;;;3.00;99.90;;;;;;6243588;22;20064;-80
2023/03/01 19:20:30;;;;;;;41.58;34.63;;;3.00;99.90;;;;;;6244013;22;20016;-80
2023/03/01 19:22:55;;;;;;;48.10;37.72;;;3.00;99.90;;;;;;6243673;22;20022;-80
2023/03/01 19:25:21;;;;;;;45.80;36.78;;;2.80;99.90;;;;;;6243651;22;20373;-79
2023/03/01 19:27:47;;;;;;;47.70;38.33;;;2.90;99.90;;;;;;6244305;22;20015;-80
2023/03/01 19:30:14;;;;;;;48.10;39.67;;;2.80;99.90;;;;;;6244012;22;20430;-79
2023/03/01 19:32:39;;;;;;;45.75;38.92;;;2.80;99.90;;;;;;6270779;22;20015;-81
2023/03/01 19:35:08;;;;;;;45.22;37.60;;;2.80;99.90;;;;;;6239184;22;20090;-78
2023/03/01 19:37:37;;;;;;;44.60;38.28;;;2.80;99.90;;;;;;6269525;22;20023;-81
2023/03/01 19:40:03;;;;;;;47.38;37.83;;;2.80;99.90;;;;;;6270174;22;20146;-81
2023/03/01 19:42:29;;;;;;;47.92;37.50;;;2.90;99.90;;;;;;6269553;22;20015;-82
2023/03/01 19:44:55;;;;;;;52.85;40.30;;;2.90;99.90;;;;;;6243279;22;20029;-81
2023/03/01 19:47:20;;;;;;;47.03;37.65;;;3.00;99.90;;;;;;6271032;22;20011;-79
2023/03/01 19:49:46;;;;;;;46.63;37.45;;;3.00;99.90;;;;;;6271428;22;20073;-81
2023/03/01 19:52:11;;;;;;;51.80;39.70;;;3.00;99.90;;;;;;6244321;22;20043;-81
2023/03/01 19:54:37;;;;;;;53.20;41.03;;;3.10;99.90;;;;;;6243490;22;20021;-82
2023/03/01 19:57:03;;;;;;;58.78;45.15;;;3.10;99.90;;;;;;6269591;22;20019;-81
2023/03/01 19:59:28;;;;;;;61.75;42.55;;;3.40;99.90;;;;;;6243433;22;20110;-82
2023/03/01 20:01:54;;;;;;;64.18;47.35;;;3.10;99.90;;;;;;6244043;22;20012;-81
2023/03/01 20:04:21;;;;;;;57.75;43.08;;;3.00;99.90;;;;;;6271460;22;20095;-83
2023/03/01 20:06:47;;;;;;;54.05;42.70;;;3.10;99.90;;;;;;6245384;22;20012;-81
2023/03/01 20:09:14;;;;;;;52.85;41.10;;;3.20;99.90;;;;;;6244594;22;20008;-81
2023/03/01 20:11:41;;;;;;;51.58;40.53;;;3.20;99.90;;;;;;6270907;22;20489;-82
2023/03/01 20:14:09;;;;;;;52.28;40.25;;;3.20;99.90;;;;;;6272454;22;20080;-80
2023/03/01 20:16:35;;;;;;;55.10;43.50;;;3.20;99.90;;;;;;6245089;22;20019;-80
2023/03/01 20:19:01;;;;;;;58.80;41.47;;;3.20;99.90;;;;;;6273634;22;20007;-81
2023/03/01 20:21:27;;;;;;;56.05;42.30;;;3.20;99.90;;;;;;6245881;22;20017;-80
2023/03/01 20:23:53;;;;;;;57.22;41.03;;;3.20;99.90;;;;;;6273704;22;20458;-82
2023/03/01 20:26:21;;;;;;;59.63;45.00;;;3.20;99.90;;;;;;6272429;22;20008;-81
2023/03/01 20:28:49;;;;;;;53.60;41.38;;;3.20;99.90;;;;;;6246267;22;20019;-81
2023/03/01 20:31:17;;;;;;;50.80;38.95;;;3.30;99.90;;;;;;6245403;22;20043;-81
2023/03/01 20:33:43;;;;;;;57.47;41.72;;;3.30;99.90;;;;;;6244920;22;20210;-82
2023/03/01 20:36:09;;;;;;;57.25;40.50;;;3.30;99.90;;;;;;6242772;22;20057;-81
2023/03/01 20:38:37;;;;;;;57.72;43.80;;;3.30;99.90;;;;;;6243988;22;20410;-81
2023/03/01 20:41:09;;;;;;;54.60;41.40;;;3.30;99.90;;;;;;6246299;22;20039;-81
2023/03/01 20:43:35;;;;;;;50.40;39.10;;;3.30;99.90;;;;;;6220701;22;20012;-81
2023/03/01 20:46:05;;;;;;;54.08;41.00;;;3.50;99.90;;;;;;6244711;22;20020;-82
2023/03/01 20:48:31;;;;;;;49.63;37.95;;;3.30;99.90;;;;;;6272885;22;20012;-81
2023/03/01 20:51:00;;;;;;;51.83;39.22;;;3.30;99.90;;;;;;6245310;22;20016;-81
2023/03/01 20:53:26;;;;;;;51.08;39.15;;;3.30;99.90;;;;;;6244843;22;20012;-81
2023/03/01 20:55:52;;;;;;;51.92;40.92;;;3.30;99.90;;;;;;6269946;22;20064;-82
2023/03/01 20:58:18;;;;;;;51.88;38.50;;;3.30;99.90;;;;;;6242396;22;20008;-81
2023/03/01 21:00:43;;;;;;;51.25;37.78;;;3.30;99.90;;;;;;6269603;22;20066;-82
2023/03/01 21:03:09;;;;;;;48.60;36.20;;;3.30;99.90;;;;;;6243207;22;20077;-81
2023/03/01 21:05:34;;;;;;;47.08;36.78;;;3.40;99.90;;;;;;6216853;22;20422;-82
2023/03/01 21:08:01;;;;;;;45.50;36.35;;;3.30;99.90;;;;;;6217698;22;20023;-81
2023/03/01 21:10:28;;;;;;;47.53;38.63;;;3.40;99.90;;;;;;6244369;22;20061;-82
2023/03/01 21:12:54;;;;;;;47.13;36.83;;;3.40;99.90;;;;;;6245541;22;20016;-81
2023/03/01 21:15:19;;;;;;;45.78;36.28;;;3.30;99.90;;;;;;6244491;22;20061;-81
2023/03/01 21:17:46;;;;;;;44.97;35.60;;;3.30;99.90;;;;;;6246099;22;20008;-81
2023/03/01 21:20:12;;;;;;;47.35;35.47;;;3.20;99.90;;;;;;6220110;22;20505;-81
2023/03/01 21:22:38;;;;;;;46.95;34.85;;;3.30;99.90;;;;;;6272657;22;20109;-81
2023/03/01 21:25:04;;;;;;;45.05;36.65;;;3.20;99.90;;;;;;6245223;22;20011;-82
2023/03/01 21:27:34;;;;;;;46.22;36.50;;;3.20;99.90;;;;;;6245170;22;20016;-81
2023/03/01 21:30:00;;;;;;;45.55;35.08;;;3.20;99.90;;;;;;6244569;22;20243;-81
2023/03/01 21:32:25;;;;;;;42.08;33.95;;;3.20;99.90;;;;;;6245302;22;20012;-81
2023/03/01 21:34:51;;;;;;;45.42;34.95;;;3.20;99.90;;;;;;6244341;22;20008;-82
2023/03/01 21:37:18;;;;;;;46.67;35.53;;;3.20;99.90;;;;;;6244943;22;20016;-82
2023/03/01 21:39:43;;;;;;;42.28;33.88;;;3.20;99.90;;;;;;6272837;22;20039;-81
2023/03/01 21:42:09;;;;;;;42.40;33.88;;;3.20;99.90;;;;;;6245165;22;20480;-82
2023/03/01 21:44:35;;;;;;;39.72;31.08;;;3.20;99.90;;;;;;6271475;22;20510;-81
2023/03/01 21:47:00;;;;;;;39.10;30.58;;;3.20;99.90;;;;;;6244997;22;20014;-81
2023/03/01 21:49:26;;;;;;;43.92;32.88;;;3.20;99.90;;;;;;6244636;22;20008;-81
2023/03/01 21:51:52;;;;;;;36.80;29.90;;;3.20;99.90;;;;;;6245141;22;20467;-82
2023/03/01 21:54:19;;;;;;;36.28;29.83;;;3.20;99.90;;;;;;6243943;22;20084;-82
2023/03/01 21:56:46;;;;;;;37.17;30.33;;;3.30;99.90;;;;;;6244718;22;20039;-81
2023/03/01 21:59:15;;;;;;;38.03;30.30;;;3.20;99.90;;;;;;6272140;22;20007;-82
2023/03/01 22:01:41;;;;;;;39.33;30.30;;;3.10;99.90;;;;;;6245322;22;20069;-81
2023/03/01 22:04:07;;;;;;;39.85;31.92;;;3.20;99.90;;;;;;6218977;22;20422;-81
2023/03/01 22:06:41;;;;;;;41.63;32.80;;;3.20;99.90;;;;;;6271811;22;20011;-81
2023/03/01 22:09:18;;;;;;;39.35;32.47;;;3.10;99.90;;;;;;6220401;22;20363;-81
2023/03/01 22:11:53;;;;;;;47.60;37.92;;;3.20;99.90;;;;;;6244847;22;20043;-81
2023/03/01 22:14:19;;;;;;;39.08;31.98;;;3.10;99.90;;;;;;6271437;22;20008;-81
2023/03/01 22:16:47;;;;;;;38.70;30.15;;;3.10;99.90;;;;;;6245041;22;20011;-82
2023/03/01 22:19:14;;;;;;;40.55;31.63;;;3.10;99.90;;;;;;6245025;22;20010;-81
2023/03/01 22:21:42;;;;;;;36.50;29.88;;;3.10;99.90;;;;;;6245053;22;20161;-82
2023/03/01 22:24:09;;;;;;;38.67;29.88;;;3.10;99.90;;;;;;6244182;22;20446;-82
2023/03/01 22:26:40;;;;;;;36.53;29.38;;;3.10;99.90;;;;;;6244081;22;20108;-81
2023/03/01 22:29:09;;;;;;;34.45;28.52;;;3.10;99.90;;;;;;6219445;22;20015;-82
2023/03/01 22:31:35;;;;;;;36.88;28.95;;;3.10;99.90;;;;;;6242770;22;20438;-82
2023/03/01 22:34:02;;;;;;;35.20;28.52;;;3.20;99.90;;;;;;6273016;22;20043;-81
2023/03/01 22:36:28;;;;;;;34.67;28.38;;;3.10;99.90;;;;;;6244726;22;20015;-81
2023/03/01 22:38:58;;;;;;;35.08;28.85;;;3.10;99.90;;;;;;6272597;22;20076;-81
2023/03/01 22:41:26;;;;;;;34.97;29.08;;;3.10;99.90;;;;;;6243621;22;20015;-81
2023/03/01 22:43:52;;;;;;;32.92;27.27;;;3.10;99.90;;;;;;6244316;22;20011;-81
2023/03/01 22:46:19;;;;;;;30.38;25.08;;;3.10;99.90;;;;;;6271249;22;20011;-81
2023/03/01 22:48:46;;;;;;;29.33;24.48;;;3.10;99.90;;;;;;6244600;22;20118;-81
2023/03/01 22:51:20;;;;;;;31.85;25.42;;;3.20;99.90;;;;;;6245121;22;20019;-81
2023/03/01 22:53:45;;;;;;;29.80;24.92;;;3.20;99.90;;;;;;6245176;22;20008;-81
2023/03/01 22:56:18;;;;;;;32.25;25.63;;;3.10;99.90;;;;;;6218831;22;20019;-81
2023/03/01 22:58:44;;;;;;;33.95;27.45;;;3.10;99.90;;;;;;6272622;22;20104;-81
2023/03/01 23:01:15;;;;;;;31.42;27.75;;;3.00;99.90;;;;;;6273046;22;20024;-82
2023/03/01 23:03:41;;;;;;;34.08;28.23;;;3.00;99.90;;;;;;6245726;22;20024;-82
2023/03/01 23:06:07;;;;;;;35.65;29.52;;;3.00;99.90;;;;;;6244663;22;20015;-81
2023/03/01 23:08:33;;;;;;;39.88;28.80;;;3.00;99.90;;;;;;6244969;22;20051;-81
2023/03/01 23:10:58;;;;;;;35.00;28.48;;;2.90;99.90;;;;;;6244253;22;20023;-81
2023/03/01 23:13:24;;;;;;;32.63;27.92;;;2.90;99.90;;;;;;6245000;22;20011;-81
2023/03/01 23:15:57;;;;;;;35.40;29.30;;;3.00;99.90;;;;;;6219133;22;20395;-81
2023/03/01 23:18:23;;;;;;;36.67;29.33;;;3.00;99.90;;;;;;6272670;22;20004;-81
2023/03/01 23:20:48;;;;;;;35.88;29.33;;;3.00;99.90;;;;;;6272499;22;20133;-82
2023/03/01 23:23:15;;;;;;;39.17;31.52;;;3.00;99.90;;;;;;6246385;22;20443;-81
2023/03/01 23:25:40;;;;;;;39.58;32.83;;;3.00;99.90;;;;;;6244248;22;20012;-81
2023/03/01 23:28:07;;;;;;;38.30;31.45;;;3.00;99.90;;;;;;6219518;22;20086;-81
2023/03/01 23:30:32;;;;;;;37.85;32.30;;;3.00;99.90;;;;;;6224065;23;20023;-81
2023/03/01 23:32:59;;;;;;;37.20;31.40;;;2.90;99.90;;;;;;6209672;23;20092;-81
2023/03/01 23:35:25;;;;;;;40.00;32.00;;;2.90;99.90;;;;;;6208975;23;20059;-81
2023/03/01 23:37:51;;;;;;;38.22;30.73;;;2.80;99.90;;;;;;6209454;23;20008;-81
2023/03/01 23:40:19;;;;;;;44.63;32.08;;;2.80;99.90;;;;;;6210875;23;20062;-81
2023/03/01 23:42:45;;;;;;;40.22;31.85;;;2.80;99.90;;;;;;6184515;23;20013;-82
2023/03/01 23:45:11;;;;;;;40.17;32.45;;;2.70;99.90;;;;;;6183902;23;20159;-80
2023/03/01 23:47:37;;;;;;;39.97;32.00;;;2.70;99.90;;;;;;6211897;23;20013;-79
2023/03/01 23:50:04;;;;;;;38.67;32.20;;;2.70;99.90;;;;;;6211722;23;20456;-80
2023/03/01 23:52:37;;;;;;;36.83;31.33;;;2.70;99.90;;;;;;6213269;23;20008;-82
2023/03/01 23:55:03;;;;;;;38.05;31.38;;;2.70;99.90;;;;;;6210290;23;20104;-81
2023/03/01 23:57:28;;;;;;;35.72;30.58;;;2.60;99.90;;;;;;6213381;23;20062;-81
2023/03/01 23:59:54;;;;;;;36.10;30.30;;;2.60;99.90;;;;;;6211283;23;20016;-81
